Time;durP1;ratioP1;P1;durP2;ratioP2;P2;SDS_P1;SDS_P2;PMS_P1;PMS_P2;Temp;Humidity;BMP_temperature;BMP_pressure;BME280_temperature;BME280_humidity;BME280_pressure;Samples;Min_cycle;Max_cycle;Signal;HPM_P1;HPM_P2
2021/07/24 00:01:55;;;;;;;30.37;24.17;;;24.10;99.90;;;;;;5021674;28;20190;-73
2021/07/24 00:04:22;;;;;;;36.45;24.27;;;24.20;99.90;;;;;;5031817;28;20175;-76
2021/07/24 00:06:52;;;;;;;33.00;23.08;;;24.20;99.90;;;;;;5049028;28;20252;-74
2021/07/24 00:09:19;;;;;;;36.17;24.00;;;24.20;99.90;;;;;;5044141;28;20617;-74
2021/07/24 00:11:45;;;;;;;39.37;25.57;;;24.20;99.90;;;;;;5046135;28;20277;-75
2021/07/24 00:14:12;;;;;;;33.40;24.90;;;24.30;99.90;;;;;;5043282;28;20187;-75
2021/07/24 00:16:38;;;;;;;35.47;24.48;;;24.20;99.90;;;;;;5031081;28;20211;-74
2021/07/24 00:19:05;;;;;;;40.20;25.98;;;24.30;99.90;;;;;;5012451;28;20739;-75
2021/07/24 00:21:31;;;;;;;31.77;23.35;;;24.20;99.90;;;;;;5026392;28;20179;-75
2021/07/24 00:23:57;;;;;;;40.17;26.02;;;24.20;99.90;;;;;;5044657;28;20180;-75
2021/07/24 00:26:24;;;;;;;35.58;26.95;;;24.30;99.90;;;;;;5031376;28;20275;-77
2021/07/24 00:28:51;;;;;;;39.10;26.25;;;24.30;99.90;;;;;;5047967;28;20206;-75
2021/07/24 00:31:17;;;;;;;33.72;26.23;;;24.30;99.90;;;;;;5024400;28;20188;-75
2021/07/24 00:33:43;;;;;;;30.75;24.30;;;24.20;99.90;;;;;;5021417;28;20644;-76
2021/07/24 00:36:09;;;;;;;36.80;26.15;;;24.20;99.90;;;;;;5041979;28;20211;-74
2021/07/24 00:38:40;;;;;;;36.27;25.03;;;24.10;99.90;;;;;;5044595;28;20290;-76
2021/07/24 00:41:29;;;;;;;35.17;25.85;;;24.20;99.90;;;;;;5043385;28;20553;-75
2021/07/24 00:43:56;;;;;;;36.88;25.88;;;24.20;99.90;;;;;;5047468;28;20183;-73
2021/07/24 00:46:25;;;;;;;30.77;24.40;;;24.10;99.90;;;;;;5058076;28;20211;-74
2021/07/24 00:48:53;;;;;;;35.57;24.53;;;24.10;99.90;;;;;;5046336;28;20245;-75
2021/07/24 00:51:31;;;;;;;27.17;21.67;;;24.10;99.90;;;;;;5026041;28;20636;-75
2021/07/24 00:53:58;;;;;;;25.92;20.65;;;24.10;99.90;;;;;;5044090;28;20179;-75
2021/07/24 00:56:25;;;;;;;24.40;19.10;;;24.10;99.90;;;;;;5043520;28;20330;-76
2021/07/24 00:58:52;;;;;;;25.20;18.88;;;24.00;99.90;;;;;;5044928;28;20187;-75
2021/07/24 01:01:18;;;;;;;20.67;18.38;;;24.00;99.90;;;;;;5024772;28;20184;-76
2021/07/24 01:03:46;;;;;;;20.37;16.57;;;24.00;99.90;;;;;;5017002;28;20195;-76
2021/07/24 01:06:15;;;;;;;20.90;16.58;;;24.00;99.90;;;;;;5041737;28;22147;-75
2021/07/24 01:08:43;;;;;;;21.08;16.33;;;23.90;99.90;;;;;;5026570;28;21151;-73
2021/07/24 01:11:12;;;;;;;25.20;15.87;;;23.80;99.90;;;;;;5046076;28;20202;-74
2021/07/24 01:13:41;;;;;;;23.42;15.68;;;23.80;99.90;;;;;;5055671;28;20191;-75
2021/07/24 01:16:09;;;;;;;25.57;15.70;;;23.70;99.90;;;;;;5045052;28;20999;-74
2021/07/24 01:18:37;;;;;;;18.13;14.82;;;23.60;99.90;;;;;;5024692;28;20180;-73
2021/07/24 01:21:10;;;;;;;17.80;14.77;;;23.70;99.90;;;;;;5043328;28;20190;-77
2021/07/24 01:23:38;;;;;;;20.00;14.73;;;23.60;99.90;;;;;;5039920;28;20244;-75
2021/07/24 01:26:06;;;;;;;26.40;14.90;;;23.60;99.90;;;;;;5024686;28;20180;-76
2021/07/24 01:28:35;;;;;;;21.70;13.98;;;23.50;99.90;;;;;;5046437;28;22658;-74
2021/07/24 01:31:06;;;;;;;18.13;13.47;;;23.50;99.90;;;;;;5042566;28;20302;-74
2021/07/24 01:33:34;;;;;;;20.67;15.00;;;23.60;99.90;;;;;;5037656;28;20274;-75
2021/07/24 01:36:01;;;;;;;20.33;13.97;;;23.60;99.90;;;;;;5037860;28;20695;-75
2021/07/24 01:38:30;;;;;;;17.67;13.83;;;23.60;99.90;;;;;;5040932;28;20188;-73
2021/07/24 01:40:57;;;;;;;18.42;14.15;;;23.60;99.90;;;;;;5025304;28;20183;-73
2021/07/24 01:43:23;;;;;;;19.43;14.80;;;23.60;99.90;;;;;;5023020;28;20192;-74
2021/07/24 01:45:49;;;;;;;21.60;13.53;;;23.60;99.90;;;;;;5038284;28;20214;-74
2021/07/24 01:48:18;;;;;;;16.80;12.73;;;23.40;99.90;;;;;;5043608;28;20318;-74
2021/07/24 01:53:34;;;;;;;14.57;9.47;;;23.30;99.90;;;;;;5041495;28;20188;-75
2021/07/24 01:56:09;;;;;;;15.23;8.67;;;23.10;99.90;;;;;;5022434;28;20211;-74
2021/07/24 01:58:37;;;;;;;12.90;7.77;;;23.10;99.90;;;;;;5037269;28;20187;-74
2021/07/24 02:01:06;;;;;;;16.00;7.30;;;23.00;99.90;;;;;;5020125;28;20190;-72
2021/07/24 02:03:41;;;;;;;12.43;6.57;;;22.90;99.90;;;;;;5018023;28;20188;-75
2021/07/24 02:06:14;;;;;;;11.53;7.10;;;22.70;99.90;;;;;;5019453;28;20179;-74
2021/07/24 02:08:51;;;;;;;8.73;6.70;;;22.70;99.90;;;;;;5041234;28;20183;-75
2021/07/24 02:11:21;;;;;;;13.60;6.73;;;22.60;99.90;;;;;;5039210;28;20215;-73
2021/07/24 02:13:49;;;;;;;11.13;7.13;;;22.70;99.90;;;;;;5043972;28;20203;-73
2021/07/24 02:16:16;;;;;;;10.70;7.10;;;22.80;99.90;;;;;;5057449;28;20291;-73
2021/07/24 02:18:43;;;;;;;12.30;6.37;;;22.80;99.90;;;;;;5055225;28;20190;-76
2021/07/24 02:21:10;;;;;;;10.50;6.90;;;22.80;99.90;;;;;;5040435;28;20195;-74
2021/07/24 02:23:36;;;;;;;14.60;7.13;;;22.70;99.90;;;;;;5019168;28;20187;-72
2021/07/24 02:26:11;;;;;;;16.10;7.13;;;22.70;99.90;;;;;;5044867;28;20176;-74
2021/07/24 02:28:38;;;;;;;11.63;7.50;;;22.70;99.90;;;;;;5041304;28;20262;-75
2021/07/24 02:31:05;;;;;;;10.20;7.13;;;22.60;99.90;;;;;;5040733;28;20279;-75
2021/07/24 02:33:32;;;;;;;11.40;7.77;;;22.60;99.90;;;;;;5041110;28;20199;-74
2021/07/24 02:35:58;;;;;;;9.03;7.00;;;22.60;99.90;;;;;;5028867;28;20616;-75
2021/07/24 02:38:25;;;;;;;11.03;7.00;;;22.60;99.90;;;;;;5057288;28;20172;-74
2021/07/24 02:40:51;;;;;;;12.07;7.20;;;22.60;99.90;;;;;;5026318;28;20176;-74
2021/07/24 02:43:17;;;;;;;14.50;6.57;;;22.60;99.90;;;;;;5043970;28;20316;-75
2021/07/24 02:45:44;;;;;;;14.73;7.03;;;22.60;99.90;;;;;;5044316;28;20235;-75
2021/07/24 02:48:10;;;;;;;15.00;6.80;;;22.50;99.90;;;;;;5044484;28;20249;-74
2021/07/24 02:50:37;;;;;;;12.23;6.70;;;22.50;99.90;;;;;;5057233;28;20258;-75
2021/07/24 02:53:09;;;;;;;11.77;6.70;;;22.50;99.90;;;;;;5023173;28;20211;-74
2021/07/24 02:55:35;;;;;;;13.40;6.63;;;22.50;99.90;;;;;;5053700;28;20207;-72
2021/07/24 02:58:03;;;;;;;32.80;7.47;;;22.40;99.90;;;;;;5042791;28;20175;-75
2021/07/24 03:00:30;;;;;;;16.23;6.17;;;22.30;99.90;;;;;;5041724;28;20212;-74
2021/07/24 03:02:57;;;;;;;19.93;6.33;;;22.30;99.90;;;;;;5043722;28;20176;-75
2021/07/24 03:05:23;;;;;;;20.10;7.30;;;22.30;99.90;;;;;;5043993;28;20184;-73
2021/07/24 03:07:49;;;;;;;19.17;7.20;;;22.30;99.90;;;;;;5038172;28;20687;-74
2021/07/24 03:10:16;;;;;;;16.20;6.90;;;22.30;99.90;;;;;;5043402;28;20191;-74
2021/07/24 03:12:43;;;;;;;31.40;7.87;;;22.30;99.90;;;;;;5025649;28;20195;-74
2021/07/24 03:15:11;;;;;;;23.33;8.53;;;22.30;99.90;;;;;;5053367;28;20230;-75
2021/07/24 03:17:37;;;;;;;12.70;7.37;;;22.30;99.90;;;;;;5056998;28;20172;-74
2021/07/24 03:20:05;;;;;;;23.07;8.23;;;22.30;99.90;;;;;;5025475;28;20175;-73
2021/07/24 03:22:33;;;;;;;19.67;9.40;;;22.40;99.90;;;;;;5042009;28;20632;-75
2021/07/24 03:25:00;;;;;;;15.70;9.23;;;22.40;99.90;;;;;;5044848;28;20179;-75
2021/07/24 03:27:26;;;;;;;14.87;8.00;;;22.50;99.90;;;;;;5043969;28;20176;-75
2021/07/24 03:29:53;;;;;;;13.17;8.90;;;22.60;99.90;;;;;;5040318;28;20192;-73
2021/07/24 03:32:19;;;;;;;15.47;8.70;;;22.70;99.90;;;;;;5042106;28;20276;-75
2021/07/24 03:34:45;;;;;;;18.43;10.73;;;22.70;99.90;;;;;;5025417;28;20267;-75
2021/07/24 03:37:12;;;;;;;19.10;10.27;;;22.70;99.90;;;;;;5037245;28;20314;-74
2021/07/24 03:39:38;;;;;;;14.80;10.57;;;22.80;99.90;;;;;;5025131;28;20695;-75
2021/07/24 03:42:04;;;;;;;20.53;11.83;;;22.90;99.90;;;;;;5040439;28;20203;-74
2021/07/24 03:44:31;;;;;;;17.10;11.20;;;22.90;99.90;;;;;;5040916;28;20495;-75
2021/07/24 03:46:57;;;;;;;19.53;11.57;;;22.90;99.90;;;;;;5047729;28;20204;-74
2021/07/24 03:49:24;;;;;;;19.40;12.30;;;23.00;99.90;;;;;;5060322;28;20196;-74
2021/07/24 03:51:50;;;;;;;16.20;12.33;;;23.00;99.90;;;;;;5048896;28;20191;-75
2021/07/24 03:54:16;;;;;;;17.40;12.87;;;23.10;99.90;;;;;;5045789;28;20274;-74
2021/07/24 03:56:42;;;;;;;19.13;12.80;;;23.10;99.90;;;;;;5028197;28;20302;-75
2021/07/24 03:59:09;;;;;;;26.07;13.63;;;23.20;99.90;;;;;;5047890;28;20182;-74
2021/07/24 04:01:41;;;;;;;18.17;13.63;;;23.20;99.90;;;;;;5046707;28;20245;-73
2021/07/24 04:04:07;;;;;;;18.53;14.47;;;23.20;99.90;;;;;;5038361;28;20263;-75
2021/07/24 04:06:34;;;;;;;22.63;14.60;;;23.30;99.90;;;;;;5029576;28;20178;-75
2021/07/24 04:09:03;;;;;;;29.02;14.88;;;23.30;99.90;;;;;;5040619;28;20191;-74
2021/07/24 04:11:29;;;;;;;25.60;14.48;;;23.40;99.90;;;;;;5046462;28;20180;-75
2021/07/24 04:13:57;;;;;;;19.67;13.57;;;23.40;99.90;;;;;;5045456;28;20321;-75
2021/07/24 04:16:23;;;;;;;22.02;14.82;;;23.40;99.90;;;;;;5045664;28;20200;-76
2021/07/24 04:18:50;;;;;;;22.95;15.43;;;23.50;99.90;;;;;;5027888;28;20330;-73
2021/07/24 04:21:16;;;;;;;19.85;15.02;;;23.50;99.90;;;;;;5046211;28;20289;-75
2021/07/24 04:23:42;;;;;;;20.80;16.07;;;23.60;99.90;;;;;;5046535;28;20199;-73
2021/07/24 04:26:09;;;;;;;17.50;14.98;;;23.60;99.90;;;;;;5045330;28;20228;-75
2021/07/24 04:28:35;;;;;;;25.02;16.80;;;23.70;99.90;;;;;;5046587;28;20194;-75
2021/07/24 04:31:02;;;;;;;18.58;15.05;;;23.70;99.90;;;;;;5047387;28;20215;-72
2021/07/24 04:33:28;;;;;;;20.65;14.95;;;23.80;99.90;;;;;;5029813;28;20183;-74
2021/07/24 04:35:56;;;;;;;24.85;19.52;;;23.80;99.90;;;;;;5062556;28;20207;-74
2021/07/24 04:38:23;;;;;;;28.67;20.52;;;24.00;99.90;;;;;;5058628;28;20191;-74
2021/07/24 04:40:49;;;;;;;24.35;19.25;;;24.10;99.90;;;;;;5037815;28;20205;-73
2021/07/24 04:43:15;;;;;;;29.13;20.40;;;24.20;99.90;;;;;;5046595;28;20278;-72
2021/07/24 04:45:43;;;;;;;22.88;20.02;;;24.30;99.90;;;;;;5047009;28;20223;-74
2021/07/24 04:48:12;;;;;;;23.52;18.67;;;24.30;99.90;;;;;;5042532;28;20412;-74
2021/07/24 04:50:45;;;;;;;22.58;17.60;;;24.30;99.90;;;;;;5045998;28;20203;-72
2021/07/24 04:53:14;;;;;;;22.40;17.92;;;24.30;99.90;;;;;;5031868;28;20184;-75
2021/07/24 04:55:41;;;;;;;19.92;17.65;;;24.30;99.90;;;;;;5045571;28;20280;-75
2021/07/24 04:58:10;;;;;;;22.85;15.82;;;24.30;99.90;;;;;;5045366;28;20179;-72
2021/07/24 05:00:40;;;;;;;21.52;16.13;;;24.40;99.90;;;;;;5043939;28;20176;-73
2021/07/24 05:03:06;;;;;;;19.35;17.05;;;24.50;99.90;;;;;;5044487;28;20274;-74
2021/07/24 05:05:35;;;;;;;18.65;15.90;;;24.50;99.90;;;;;;5049217;28;20195;-73
2021/07/24 05:08:04;;;;;;;23.25;15.57;;;24.50;99.90;;;;;;5046440;28;20648;-72
2021/07/24 05:10:31;;;;;;;24.95;15.77;;;24.50;99.90;;;;;;5035915;28;20241;-73
2021/07/24 05:12:58;;;;;;;18.35;14.82;;;24.50;99.90;;;;;;5059816;28;20187;-73
2021/07/24 05:15:24;;;;;;;20.88;15.73;;;24.60;99.90;;;;;;5049420;28;20211;-73
2021/07/24 05:17:51;;;;;;;19.58;14.95;;;24.70;99.90;;;;;;5045208;28;20694;-74
2021/07/24 05:20:17;;;;;;;20.67;16.02;;;24.60;99.90;;;;;;5049517;28;20180;-73
2021/07/24 05:22:44;;;;;;;24.80;15.43;;;24.70;99.90;;;;;;5028162;28;20214;-73
2021/07/24 05:25:11;;;;;;;18.48;14.60;;;24.70;99.90;;;;;;5028177;28;20175;-74
2021/07/24 05:27:37;;;;;;;18.45;14.73;;;24.70;99.90;;;;;;5061850;28;20271;-73
2021/07/24 05:30:05;;;;;;;17.33;15.35;;;24.80;99.90;;;;;;5051532;28;20567;-74
2021/07/24 05:32:33;;;;;;;22.63;15.20;;;24.80;99.90;;;;;;5042524;28;20192;-73
2021/07/24 05:34:59;;;;;;;17.10;15.25;;;24.80;99.90;;;;;;5043186;28;20215;-72
2021/07/24 05:37:26;;;;;;;19.92;15.13;;;24.90;99.90;;;;;;5044924;28;20180;-73
2021/07/24 05:39:53;;;;;;;25.73;14.93;;;24.90;99.90;;;;;;5026723;28;20556;-73
2021/07/24 05:42:19;;;;;;;20.45;15.93;;;25.00;99.90;;;;;;5033735;28;20256;-73
2021/07/24 05:44:47;;;;;;;21.60;14.40;;;25.10;99.90;;;;;;5026053;28;20184;-73
2021/07/24 05:47:13;;;;;;;19.80;14.43;;;25.10;99.90;;;;;;5042289;28;20287;-72
2021/07/24 05:49:39;;;;;;;21.83;14.48;;;25.10;99.90;;;;;;5041540;28;20239;-75
2021/07/24 05:52:11;;;;;;;21.80;15.45;;;25.20;99.90;;;;;;5041887;28;20202;-72
2021/07/24 05:54:40;;;;;;;19.15;14.32;;;25.30;99.90;;;;;;5039776;28;20246;-73
2021/07/24 05:57:08;;;;;;;20.70;14.95;;;25.40;99.90;;;;;;5016690;28;20311;-74
2021/07/24 05:59:35;;;;;;;20.55;14.75;;;25.50;99.90;;;;;;5038733;28;20898;-74
2021/07/24 06:02:04;;;;;;;27.08;15.02;;;25.50;99.90;;;;;;5042696;28;20188;-74
2021/07/24 06:04:30;;;;;;;22.88;15.20;;;25.50;99.90;;;;;;5043670;28;20211;-74
2021/07/24 06:06:56;;;;;;;18.67;14.27;;;25.60;99.90;;;;;;5044496;28;20180;-74
2021/07/24 06:09:22;;;;;;;23.38;15.27;;;25.60;99.90;;;;;;5044643;28;20346;-74
2021/07/24 06:11:49;;;;;;;22.58;13.40;;;25.70;99.90;;;;;;5042371;28;20936;-73
2021/07/24 06:14:15;;;;;;;20.27;13.30;;;25.80;99.90;;;;;;5021981;28;20191;-73
2021/07/24 06:16:41;;;;;;;18.30;13.13;;;25.80;99.90;;;;;;5057093;28;20526;-74
2021/07/24 06:19:08;;;;;;;23.98;14.10;;;25.70;99.90;;;;;;5046776;28;20179;-74
2021/07/24 06:21:34;;;;;;;19.75;13.48;;;25.90;99.90;;;;;;5044065;28;20190;-74
2021/07/24 06:24:01;;;;;;;19.67;13.25;;;26.00;99.90;;;;;;5042701;28;20194;-72
2021/07/24 06:26:27;;;;;;;21.38;13.30;;;26.20;99.90;;;;;;5032026;28;20176;-74
2021/07/24 06:28:53;;;;;;;19.45;13.85;;;26.20;99.90;;;;;;5041430;28;20384;-73
2021/07/24 06:31:19;;;;;;;21.38;14.07;;;26.20;99.90;;;;;;5045675;28;20184;-74
2021/07/24 06:33:45;;;;;;;21.75;13.27;;;26.30;99.90;;;;;;5043651;28;20309;-73
2021/07/24 06:36:12;;;;;;;19.98;12.63;;;26.30;99.90;;;;;;5031691;28;20211;-73
2021/07/24 06:38:38;;;;;;;21.63;13.00;;;26.40;99.90;;;;;;5045133;28;20214;-73
2021/07/24 06:41:07;;;;;;;23.92;14.13;;;26.40;99.90;;;;;;5045399;28;20704;-73
2021/07/24 06:43:33;;;;;;;21.80;15.00;;;26.60;99.90;;;;;;5031990;28;20195;-74
2021/07/24 06:46:12;;;;;;;22.83;14.90;;;26.70;99.90;;;;;;5045127;28;20211;-72
2021/07/24 06:48:39;;;;;;;22.10;16.08;;;26.70;99.90;;;;;;5043376;28;20187;-74
2021/07/24 06:51:09;;;;;;;19.45;14.82;;;26.70;99.90;;;;;;5032876;28;20187;-72
2021/07/24 06:53:36;;;;;;;27.52;15.85;;;26.70;99.90;;;;;;5037641;28;20183;-74
2021/07/24 06:56:04;;;;;;;18.88;14.23;;;26.70;99.90;;;;;;5044704;28;20625;-74
2021/07/24 06:58:32;;;;;;;21.65;14.90;;;26.70;99.90;;;;;;5042687;28;20191;-72
2021/07/24 07:00:59;;;;;;;24.58;15.18;;;26.80;99.90;;;;;;5054621;28;20192;-74
2021/07/24 07:03:25;;;;;;;22.98;15.15;;;26.80;99.90;;;;;;5037155;28;20219;-73
2021/07/24 07:05:52;;;;;;;22.48;15.52;;;26.90;99.90;;;;;;5040512;28;20187;-73
2021/07/24 07:08:21;;;;;;;23.23;15.18;;;27.00;99.90;;;;;;5039870;28;20250;-73
2021/07/24 07:10:48;;;;;;;23.33;15.48;;;27.00;99.90;;;;;;5023278;28;20198;-74
2021/07/24 07:13:14;;;;;;;22.88;14.57;;;27.00;99.90;;;;;;5038011;28;20180;-73
2021/07/24 07:15:40;;;;;;;21.23;14.82;;;27.10;99.90;;;;;;5051045;28;20538;-73
2021/07/24 07:18:07;;;;;;;21.08;15.35;;;27.10;99.90;;;;;;5056530;28;20184;-74
2021/07/24 07:20:34;;;;;;;23.92;15.32;;;27.10;99.90;;;;;;5042906;28;20175;-74
2021/07/24 07:23:00;;;;;;;20.48;14.90;;;27.20;99.90;;;;;;5044697;28;20675;-73
2021/07/24 07:25:26;;;;;;;28.92;14.20;;;27.10;99.90;;;;;;5043051;28;20191;-73
2021/07/24 07:27:56;;;;;;;19.08;14.23;;;27.20;99.90;;;;;;5045247;28;20218;-73
2021/07/24 07:30:22;;;;;;;23.20;15.07;;;27.40;99.90;;;;;;5030498;28;20694;-73
2021/07/24 07:32:49;;;;;;;24.75;15.05;;;27.40;99.90;;;;;;5042252;28;20285;-74
2021/07/24 07:35:15;;;;;;;21.95;15.38;;;27.40;99.90;;;;;;5027260;28;20567;-74
2021/07/24 07:37:51;;;;;;;22.17;15.05;;;27.50;99.90;;;;;;5048208;28;20179;-74
2021/07/24 07:40:19;;;;;;;15.75;14.02;;;27.60;99.90;;;;;;5044583;28;20187;-73
2021/07/24 07:42:45;;;;;;;24.02;14.20;;;27.60;99.90;;;;;;5043762;28;20195;-75
2021/07/24 07:45:12;;;;;;;22.42;14.45;;;27.70;99.90;;;;;;5015114;28;20523;-72
2021/07/24 07:47:39;;;;;;;22.38;14.55;;;27.70;99.90;;;;;;5045880;28;20594;-73
2021/07/24 07:50:07;;;;;;;22.35;14.50;;;27.80;99.90;;;;;;5056505;28;20184;-74
2021/07/24 07:52:34;;;;;;;18.15;13.60;;;27.80;99.90;;;;;;5047314;28;20190;-73
2021/07/24 07:55:01;;;;;;;23.75;14.18;;;27.90;99.90;;;;;;5027561;28;20743;-74
2021/07/24 07:57:29;;;;;;;22.55;13.82;;;27.90;99.90;;;;;;5044400;28;20274;-74
2021/07/24 07:59:56;;;;;;;19.92;12.32;;;27.90;99.90;;;;;;5044023;28;20760;-73
2021/07/24 08:02:23;;;;;;;19.92;12.18;;;27.90;99.90;;;;;;5046895;28;20696;-73
2021/07/24 08:04:49;;;;;;;18.73;12.77;;;28.10;99.90;;;;;;5041992;28;20187;-72
2021/07/24 08:07:17;;;;;;;17.25;13.15;;;28.10;99.90;;;;;;5048633;28;20301;-77
2021/07/24 08:09:43;;;;;;;22.50;13.07;;;28.20;99.90;;;;;;5031663;28;20176;-75
2021/07/24 08:12:11;;;;;;;17.65;12.85;;;28.20;99.90;;;;;;5046208;28;20436;-76
2021/07/24 08:14:38;;;;;;;20.77;11.55;;;28.20;99.90;;;;;;5041599;28;23309;-76
2021/07/24 08:17:08;;;;;;;16.75;11.18;;;28.30;99.90;;;;;;5022669;28;20238;-75
2021/07/24 08:19:35;;;;;;;19.35;11.77;;;28.30;99.90;;;;;;5048055;28;20535;-76
2021/07/24 08:22:03;;;;;;;16.27;11.73;;;28.40;99.90;;;;;;5042695;28;20306;-76
2021/07/24 08:24:29;;;;;;;16.77;12.20;;;28.40;99.90;;;;;;5044854;28;20184;-75
2021/07/24 08:26:56;;;;;;;16.23;11.70;;;28.50;99.90;;;;;;5045874;28;20270;-74
2021/07/24 08:29:22;;;;;;;19.00;11.48;;;28.60;99.90;;;;;;5045604;28;20187;-75
2021/07/24 08:31:49;;;;;;;20.55;11.18;;;28.60;99.90;;;;;;5032327;28;20184;-76
2021/07/24 08:34:16;;;;;;;14.07;10.98;;;28.60;99.90;;;;;;5046511;28;20190;-75
2021/07/24 08:36:42;;;;;;;18.65;11.50;;;28.80;99.90;;;;;;5048779;28;20310;-75
2021/07/24 08:39:09;;;;;;;18.45;10.52;;;28.80;99.90;;;;;;5046476;28;20191;-75
2021/07/24 08:41:42;;;;;;;16.65;10.57;;;28.80;99.90;;;;;;5061367;28;20175;-76
2021/07/24 08:44:12;;;;;;;19.85;11.75;;;28.90;99.90;;;;;;5030108;28;20196;-76
2021/07/24 08:46:40;;;;;;;14.38;11.25;;;28.90;99.90;;;;;;5036071;28;20216;-74
2021/07/24 08:49:07;;;;;;;15.20;11.02;;;29.00;99.90;;;;;;5060181;28;20286;-75
2021/07/24 08:51:37;;;;;;;18.02;11.32;;;29.10;99.90;;;;;;5032442;28;20191;-75
2021/07/24 08:54:06;;;;;;;14.80;10.65;;;29.20;99.90;;;;;;5029776;28;20214;-75
2021/07/24 08:56:46;;;;;;;18.20;10.82;;;29.20;99.90;;;;;;5030997;28;20207;-76
2021/07/24 08:59:17;;;;;;;14.43;9.73;;;29.20;99.90;;;;;;5044068;28;20195;-75
2021/07/24 09:01:53;;;;;;;17.85;10.20;;;29.40;99.90;;;;;;5046455;28;20651;-75
2021/07/24 09:04:22;;;;;;;18.48;10.57;;;29.30;99.90;;;;;;5032872;28;20183;-73
2021/07/24 09:06:57;;;;;;;15.25;10.82;;;29.40;99.90;;;;;;5032368;28;20192;-76
2021/07/24 09:09:25;;;;;;;15.20;10.38;;;29.50;99.90;;;;;;5040557;28;20855;-76
2021/07/24 09:11:52;;;;;;;14.48;9.52;;;29.60;99.90;;;;;;5050874;28;20740;-76
2021/07/24 09:14:18;;;;;;;11.68;8.45;;;29.60;99.90;;;;;;5045131;28;20192;-73
2021/07/24 09:16:48;;;;;;;18.48;10.18;;;29.60;99.90;;;;;;5040353;28;20211;-75
2021/07/24 09:19:17;;;;;;;20.00;10.38;;;29.70;99.90;;;;;;5038192;28;20237;-74
2021/07/24 09:21:43;;;;;;;17.75;9.90;;;29.80;99.90;;;;;;5042238;28;20282;-76
2021/07/24 09:24:24;;;;;;;14.25;9.80;;;29.80;99.90;;;;;;5030643;28;20179;-75
2021/07/24 09:26:50;;;;;;;17.10;9.45;;;29.80;99.90;;;;;;5043589;28;20192;-76
2021/07/24 09:29:19;;;;;;;16.73;8.55;;;30.00;99.90;;;;;;5045865;28;20188;-75
2021/07/24 09:31:48;;;;;;;18.92;8.38;;;30.10;99.90;;;;;;5027567;28;20187;-75
2021/07/24 09:34:16;;;;;;;12.90;9.05;;;30.10;99.90;;;;;;5062151;28;20690;-77
2021/07/24 09:36:45;;;;;;;11.80;8.15;;;30.10;99.90;;;;;;5041225;28;20208;-75
2021/07/24 09:39:18;;;;;;;9.50;8.10;;;30.10;99.90;;;;;;5046316;28;20180;-76
2021/07/24 09:41:48;;;;;;;12.10;9.15;;;30.10;99.90;;;;;;5044716;28;20188;-76
2021/07/24 09:44:30;;;;;;;11.80;9.00;;;30.30;99.90;;;;;;5045420;28;20210;-76
2021/07/24 09:46:58;;;;;;;12.65;8.30;;;30.30;99.90;;;;;;5042900;28;20249;-76
2021/07/24 09:49:38;;;;;;;16.00;8.27;;;30.40;99.90;;;;;;5037912;28;20179;-75
2021/07/24 09:52:15;;;;;;;11.57;7.70;;;30.40;99.90;;;;;;5045304;28;20179;-75
2021/07/24 09:54:42;;;;;;;14.05;8.85;;;30.40;99.90;;;;;;5042708;28;20177;-76
2021/07/24 09:57:29;;;;;;;14.10;8.40;;;30.50;99.90;;;;;;5043189;28;20238;-74
2021/07/24 09:59:55;;;;;;;14.77;8.10;;;30.50;99.90;;;;;;5043946;28;20199;-73
2021/07/24 10:02:30;;;;;;;14.15;8.15;;;30.80;99.90;;;;;;5042385;28;20394;-75
2021/07/24 10:04:57;;;;;;;14.55;8.20;;;30.70;99.90;;;;;;5030206;28;21116;-74
2021/07/24 10:07:30;;;;;;;12.45;8.27;;;31.00;99.90;;;;;;5023996;28;20549;-75
2021/07/24 10:09:58;;;;;;;15.27;8.00;;;30.90;99.90;;;;;;5039160;28;20175;-75
2021/07/24 10:12:25;;;;;;;13.63;8.38;;;30.80;99.90;;;;;;5044224;28;20256;-75
2021/07/24 10:14:52;;;;;;;15.75;9.13;;;31.00;99.90;;;;;;5044272;28;20191;-74
2021/07/24 10:17:22;;;;;;;16.50;8.27;;;31.00;99.90;;;;;;5039975;28;20682;-73
2021/07/24 10:19:58;;;;;;;13.85;8.43;;;31.10;99.90;;;;;;5034048;28;20279;-76
2021/07/24 10:22:26;;;;;;;15.52;8.07;;;31.10;99.90;;;;;;5044985;28;20182;-75
2021/07/24 10:24:54;;;;;;;15.18;8.35;;;31.40;99.90;;;;;;5036390;28;20208;-73
2021/07/24 10:27:32;;;;;;;14.68;8.32;;;32.00;99.90;;;;;;5027652;28;20461;-73
2021/07/24 10:30:05;;;;;;;17.38;8.75;;;33.40;99.90;;;;;;5042648;28;20180;-74
2021/07/24 10:32:37;;;;;;;15.20;7.88;;;33.90;99.90;;;;;;5044441;28;20179;-74
2021/07/24 10:35:06;;;;;;;17.15;8.15;;;33.70;99.90;;;;;;5042408;28;20199;-73
2021/07/24 10:37:44;;;;;;;14.95;7.70;;;33.20;99.90;;;;;;5044452;28;20249;-74
2021/07/24 10:42:47;;;;;;;14.07;7.35;;;32.20;99.90;;;;;;5042931;28;20326;-75
2021/07/24 10:45:45;;;;;;;12.13;6.95;;;32.20;99.90;;;;;;5043406;28;20282;-74
2021/07/24 10:48:16;;;;;;;15.02;7.45;;;32.00;99.90;;;;;;5041775;28;20195;-75
2021/07/24 10:50:57;;;;;;;14.30;6.93;;;32.00;99.90;;;;;;5030979;28;20246;-73
2021/07/24 10:53:28;;;;;;;9.30;6.57;;;32.00;99.90;;;;;;5038791;28;20265;-75
2021/07/24 10:55:58;;;;;;;11.75;7.20;;;31.80;99.90;;;;;;5038383;28;20211;-74
2021/07/24 10:58:26;;;;;;;16.35;6.78;;;31.70;99.90;;;;;;5058271;28;20270;-74
2021/07/24 11:00:55;;;;;;;15.23;6.72;;;31.60;99.90;;;;;;5042040;28;20196;-74
2021/07/24 11:03:39;;;;;;;10.68;7.07;;;31.80;99.90;;;;;;5041572;28;20191;-74
2021/07/24 11:06:32;;;;;;;12.07;6.45;;;31.70;99.90;;;;;;5043663;28;20183;-74
2021/07/24 11:09:09;;;;;;;13.18;6.80;;;31.80;99.90;;;;;;5041606;28;20259;-74
2021/07/24 11:11:44;;;;;;;10.90;6.55;;;31.90;99.90;;;;;;5037882;28;20209;-75
2021/07/24 11:14:37;;;;;;;14.85;6.28;;;31.80;99.90;;;;;;5043212;28;20187;-75
2021/07/24 11:17:13;;;;;;;13.80;5.85;;;31.80;99.90;;;;;;5040709;28;20207;-76
2021/07/24 11:20:11;;;;;;;12.60;6.82;;;31.80;99.90;;;;;;5048476;28;20270;-75
2021/07/24 11:23:04;;;;;;;9.90;6.35;;;31.90;99.90;;;;;;5034412;28;20184;-75
2021/07/24 11:25:33;;;;;;;11.25;7.07;;;31.70;99.90;;;;;;5041647;28;20180;-76
2021/07/24 11:28:00;;;;;;;15.15;6.63;;;31.70;99.90;;;;;;5034664;28;20727;-75
2021/07/24 11:30:27;;;;;;;12.02;6.45;;;31.70;99.90;;;;;;5036815;28;20968;-75
2021/07/24 11:33:01;;;;;;;11.65;6.03;;;31.70;99.90;;;;;;5036939;28;20903;-76
2021/07/24 11:35:39;;;;;;;12.40;6.80;;;31.80;99.90;;;;;;5039212;28;20203;-75
2021/07/24 11:38:21;;;;;;;11.50;6.70;;;31.80;99.90;;;;;;5032292;28;20183;-75
2021/07/24 11:41:00;;;;;;;11.70;6.47;;;31.50;99.90;;;;;;5045409;28;20186;-76
2021/07/24 11:43:28;;;;;;;8.25;6.13;;;31.40;99.90;;;;;;5022992;28;20261;-76
2021/07/24 11:46:02;;;;;;;11.77;5.78;;;31.70;99.90;;;;;;5059668;28;20208;-77
2021/07/24 11:48:30;;;;;;;12.02;5.90;;;31.80;99.90;;;;;;5024401;28;20185;-75
2021/07/24 11:51:10;;;;;;;13.18;5.50;;;31.80;99.90;;;;;;5024332;28;20192;-76
2021/07/24 11:53:37;;;;;;;7.70;5.22;;;31.90;99.90;;;;;;5034292;28;20184;-75
2021/07/24 11:56:11;;;;;;;7.32;5.30;;;31.80;99.90;;;;;;5039233;28;20724;-75
2021/07/24 11:58:41;;;;;;;13.02;6.18;;;31.80;99.90;;;;;;5026728;28;20695;-75
2021/07/24 12:01:25;;;;;;;8.90;5.22;;;31.60;99.90;;;;;;5020365;28;20191;-75
2021/07/24 12:04:09;;;;;;;10.80;5.88;;;31.40;99.90;;;;;;5019452;28;20223;-75
2021/07/24 12:06:50;;;;;;;10.52;6.25;;;31.30;99.90;;;;;;5042440;28;20249;-76
2021/07/24 12:09:18;;;;;;;21.42;6.68;;;31.40;99.90;;;;;;5042568;28;20195;-75
2021/07/24 12:12:00;;;;;;;11.65;6.03;;;31.70;99.90;;;;;;5050107;28;20260;-75
2021/07/24 12:14:30;;;;;;;12.02;6.03;;;31.70;99.90;;;;;;5026187;28;20187;-76
2021/07/24 12:17:13;;;;;;;14.48;6.75;;;31.70;99.90;;;;;;5027308;28;20214;-76
2021/07/24 12:19:44;;;;;;;15.90;6.88;;;31.60;99.90;;;;;;5056798;28;20254;-75
2021/07/24 12:22:22;;;;;;;12.90;7.25;;;32.00;99.90;;;;;;5037383;28;20187;-75
2021/07/24 12:24:52;;;;;;;11.43;7.80;;;32.10;99.90;;;;;;5053659;28;20195;-75
2021/07/24 12:27:22;;;;;;;12.88;4.90;;;31.90;99.90;;;;;;5013070;28;20188;-76
2021/07/24 12:30:01;;;;;;;10.88;5.60;;;31.50;99.90;;;;;;5058714;28;20184;-75
2021/07/24 12:32:46;;;;;;;10.52;5.13;;;31.20;99.90;;;;;;5059474;28;20505;-75
2021/07/24 12:35:22;;;;;;;13.82;5.40;;;31.10;99.90;;;;;;5053477;28;20698;-75
2021/07/24 12:38:27;;;;;;;12.65;5.32;;;31.00;99.90;;;;;;5030450;28;20189;-76
2021/07/24 12:41:06;;;;;;;8.75;5.05;;;30.80;99.90;;;;;;5042231;28;20214;-75
2021/07/24 12:43:32;;;;;;;5.45;4.72;;;30.80;99.90;;;;;;5046440;28;20214;-75
2021/07/24 12:46:16;;;;;;;8.13;5.32;;;31.00;99.90;;;;;;5042017;28;20234;-75
2021/07/24 12:48:47;;;;;;;8.80;5.53;;;30.90;99.90;;;;;;5040007;28;20188;-76